sensor_id;sensor_type;location;lat;lon;timestamp;P1;durP1;ratioP1;P2;durP2;ratioP2
24826;SDS011;12910;57.690;11.974;2022-12-18T00:01:00;43.67;;;17.63;;
24826;SDS011;12910;57.690;11.974;2022-12-18T00:03:31;34.77;;;13.90;;
24826;SDS011;12910;57.690;11.974;2022-12-18T00:06:00;43.47;;;15.83;;
24826;SDS011;12910;57.690;11.974;2022-12-18T00:08:26;29.83;;;14.10;;
24826;SDS011;12910;57.690;11.974;2022-12-18T00:10:52;55.03;;;19.33;;
24826;SDS011;12910;57.690;11.974;2022-12-18T00:13:18;37.90;;;17.20;;
24826;SDS011;12910;57.690;11.974;2022-12-18T00:15:43;40.27;;;15.40;;
24826;SDS011;12910;57.690;11.974;2022-12-18T00:18:09;33.60;;;14.57;;
24826;SDS011;12910;57.690;11.974;2022-12-18T00:20:35;47.60;;;17.10;;
24826;SDS011;12910;57.690;11.974;2022-12-18T00:23:01;43.17;;;16.53;;
24826;SDS011;12910;57.690;11.974;2022-12-18T00:25:27;51.33;;;17.07;;
24826;SDS011;12910;57.690;11.974;2022-12-18T00:27:52;41.00;;;15.97;;
24826;SDS011;12910;57.690;11.974;2022-12-18T00:30:18;35.13;;;16.03;;
24826;SDS011;12910;57.690;11.974;2022-12-18T00:32:43;33.47;;;14.50;;
24826;SDS011;12910;57.690;11.974;2022-12-18T00:35:08;44.93;;;17.10;;
24826;SDS011;12910;57.690;11.974;2022-12-18T00:37:34;41.60;;;13.57;;
24826;SDS011;12910;57.690;11.974;2022-12-18T00:39:59;31.40;;;15.70;;
24826;SDS011;12910;57.690;11.974;2022-12-18T00:42:24;26.07;;;14.97;;
24826;SDS011;12910;57.690;11.974;2022-12-18T00:45:08;26.33;;;14.20;;
24826;SDS011;12910;57.690;11.974;2022-12-18T00:47:34;27.67;;;11.60;;
24826;SDS011;12910;57.690;11.974;2022-12-18T00:49:59;34.37;;;13.63;;
24826;SDS011;12910;57.690;11.974;2022-12-18T00:52:24;30.97;;;13.37;;
24826;SDS011;12910;57.690;11.974;2022-12-18T00:54:50;26.27;;;15.07;;
24826;SDS011;12910;57.690;11.974;2022-12-18T00:57:15;31.20;;;14.67;;
24826;SDS011;12910;57.690;11.974;2022-12-18T00:59:42;25.93;;;13.80;;
24826;SDS011;12910;57.690;11.974;2022-12-18T01:02:07;34.70;;;14.70;;
24826;SDS011;12910;57.690;11.974;2022-12-18T01:04:32;30.13;;;13.47;;
24826;SDS011;12910;57.690;11.974;2022-12-18T01:06:58;35.67;;;15.63;;
24826;SDS011;12910;57.690;11.974;2022-12-18T01:09:23;22.80;;;14.00;;
24826;SDS011;12910;57.690;11.974;2022-12-18T01:11:49;30.43;;;15.70;;
24826;SDS011;12910;57.690;11.974;2022-12-18T01:14:14;31.53;;;14.03;;
24826;SDS011;12910;57.690;11.974;2022-12-18T01:16:40;30.03;;;13.63;;
24826;SDS011;12910;57.690;11.974;2022-12-18T01:19:05;30.70;;;14.00;;
24826;SDS011;12910;57.690;11.974;2022-12-18T01:21:30;20.57;;;12.10;;
24826;SDS011;12910;57.690;11.974;2022-12-18T01:23:56;30.23;;;14.13;;
24826;SDS011;12910;57.690;11.974;2022-12-18T01:26:22;28.40;;;13.10;;
24826;SDS011;12910;57.690;11.974;2022-12-18T01:28:48;27.53;;;12.07;;
24826;SDS011;12910;57.690;11.974;2022-12-18T01:31:15;34.33;;;15.23;;
24826;SDS011;12910;57.690;11.974;2022-12-18T01:33:44;26.60;;;13.87;;
24826;SDS011;12910;57.690;11.974;2022-12-18T01:36:16;28.33;;;13.33;;
24826;SDS011;12910;57.690;11.974;2022-12-18T01:38:44;26.17;;;14.43;;
24826;SDS011;12910;57.690;11.974;2022-12-18T01:41:10;32.90;;;14.50;;
24826;SDS011;12910;57.690;11.974;2022-12-18T01:43:54;49.53;;;14.87;;
24826;SDS011;12910;57.690;11.974;2022-12-18T01:46:22;29.60;;;14.10;;
24826;SDS011;12910;57.690;11.974;2022-12-18T01:48:51;28.70;;;12.93;;
24826;SDS011;12910;57.690;11.974;2022-12-18T01:51:22;27.77;;;12.03;;
24826;SDS011;12910;57.690;11.974;2022-12-18T01:53:48;25.83;;;12.17;;
24826;SDS011;12910;57.690;11.974;2022-12-18T01:56:14;16.27;;;11.17;;
24826;SDS011;12910;57.690;11.974;2022-12-18T02:01:31;11.97;;;10.10;;
24826;SDS011;12910;57.690;11.974;2022-12-18T02:04:16;18.60;;;9.03;;
24826;SDS011;12910;57.690;11.974;2022-12-18T02:06:46;24.97;;;11.13;;
24826;SDS011;12910;57.690;11.974;2022-12-18T02:09:20;17.57;;;9.40;;
24826;SDS011;12910;57.690;11.974;2022-12-18T02:17:52;19.57;;;13.00;;
24826;SDS011;12910;57.690;11.974;2022-12-18T02:20:24;35.77;;;12.87;;
24826;SDS011;12910;57.690;11.974;2022-12-18T02:31:27;32.93;;;13.00;;
24826;SDS011;12910;57.690;11.974;2022-12-18T02:33:56;41.30;;;13.10;;
24826;SDS011;12910;57.690;11.974;2022-12-18T02:36:27;43.23;;;13.10;;
24826;SDS011;12910;57.690;11.974;2022-12-18T02:38:53;39.07;;;12.90;;
24826;SDS011;12910;57.690;11.974;2022-12-18T02:41:20;36.00;;;10.50;;
24826;SDS011;12910;57.690;11.974;2022-12-18T02:43:53;15.67;;;10.40;;
24826;SDS011;12910;57.690;11.974;2022-12-18T02:48:52;33.33;;;12.80;;
24826;SDS011;12910;57.690;11.974;2022-12-18T02:51:29;41.27;;;12.53;;
24826;SDS011;12910;57.690;11.974;2022-12-18T02:54:09;17.60;;;9.23;;
24826;SDS011;12910;57.690;11.974;2022-12-18T02:56:45;35.83;;;10.47;;
24826;SDS011;12910;57.690;11.974;2022-12-18T02:59:17;22.83;;;9.47;;
24826;SDS011;12910;57.690;11.974;2022-12-18T03:01:50;32.27;;;7.97;;
24826;SDS011;12910;57.690;11.974;2022-12-18T03:06:56;27.80;;;9.50;;
24826;SDS011;12910;57.690;11.974;2022-12-18T03:09:27;14.63;;;8.57;;
24826;SDS011;12910;57.690;11.974;2022-12-18T03:11:59;44.77;;;12.53;;
24826;SDS011;12910;57.690;11.974;2022-12-18T03:15:03;27.13;;;11.23;;
24826;SDS011;12910;57.690;11.974;2022-12-18T03:17:35;17.50;;;9.60;;
24826;SDS011;12910;57.690;11.974;2022-12-18T03:20:10;25.07;;;10.23;;
24826;SDS011;12910;57.690;11.974;2022-12-18T03:22:39;14.43;;;6.93;;
24826;SDS011;12910;57.690;11.974;2022-12-18T03:25:08;25.67;;;10.60;;
24826;SDS011;12910;57.690;11.974;2022-12-18T03:27:36;25.77;;;10.87;;
24826;SDS011;12910;57.690;11.974;2022-12-18T03:30:08;15.97;;;7.57;;
24826;SDS011;12910;57.690;11.974;2022-12-18T03:32:39;24.73;;;11.37;;
24826;SDS011;12910;57.690;11.974;2022-12-18T03:35:09;19.83;;;8.87;;
24826;SDS011;12910;57.690;11.974;2022-12-18T03:37:37;30.57;;;11.40;;
24826;SDS011;12910;57.690;11.974;2022-12-18T03:40:03;37.53;;;11.67;;
24826;SDS011;12910;57.690;11.974;2022-12-18T03:42:32;32.00;;;12.53;;
24826;SDS011;12910;57.690;11.974;2022-12-18T03:53:05;45.83;;;12.57;;
24826;SDS011;12910;57.690;11.974;2022-12-18T03:55:49;37.40;;;12.33;;
24826;SDS011;12910;57.690;11.974;2022-12-18T03:58:17;34.43;;;11.87;;
24826;SDS011;12910;57.690;11.974;2022-12-18T04:00:46;31.73;;;11.73;;
24826;SDS011;12910;57.690;11.974;2022-12-18T04:03:15;36.30;;;13.53;;
24826;SDS011;12910;57.690;11.974;2022-12-18T04:05:43;23.50;;;10.70;;
24826;SDS011;12910;57.690;11.974;2022-12-18T04:08:10;29.57;;;11.10;;
24826;SDS011;12910;57.690;11.974;2022-12-18T04:10:36;30.47;;;12.83;;
24826;SDS011;12910;57.690;11.974;2022-12-18T04:13:02;23.43;;;11.43;;
24826;SDS011;12910;57.690;11.974;2022-12-18T04:15:27;26.37;;;11.93;;
24826;SDS011;12910;57.690;11.974;2022-12-18T04:17:53;25.30;;;9.00;;
24826;SDS011;12910;57.690;11.974;2022-12-18T04:20:18;39.43;;;11.67;;
24826;SDS011;12910;57.690;11.974;2022-12-18T04:22:43;15.03;;;10.60;;
24826;SDS011;12910;57.690;11.974;2022-12-18T04:25:09;38.87;;;11.77;;
24826;SDS011;12910;57.690;11.974;2022-12-18T04:27:37;27.40;;;10.23;;
24826;SDS011;12910;57.690;11.974;2022-12-18T04:30:02;38.20;;;10.73;;
24826;SDS011;12910;57.690;11.974;2022-12-18T04:32:28;26.87;;;10.93;;
24826;SDS011;12910;57.690;11.974;2022-12-18T04:34:54;31.87;;;9.97;;
24826;SDS011;12910;57.690;11.974;2022-12-18T04:37:19;25.07;;;10.17;;
24826;SDS011;12910;57.690;11.974;2022-12-18T04:39:44;22.93;;;8.93;;
24826;SDS011;12910;57.690;11.974;2022-12-18T04:42:10;17.40;;;8.67;;
24826;SDS011;12910;57.690;11.974;2022-12-18T04:44:35;32.30;;;10.53;;
24826;SDS011;12910;57.690;11.974;2022-12-18T04:47:01;24.63;;;10.63;;
24826;SDS011;12910;57.690;11.974;2022-12-18T04:49:26;24.23;;;9.83;;
24826;SDS011;12910;57.690;11.974;2022-12-18T04:51:52;18.07;;;9.57;;
24826;SDS011;12910;57.690;11.974;2022-12-18T04:54:17;27.67;;;9.30;;
24826;SDS011;12910;57.690;11.974;2022-12-18T04:56:43;22.37;;;10.23;;
24826;SDS011;12910;57.690;11.974;2022-12-18T04:59:08;18.20;;;9.13;;
24826;SDS011;12910;57.690;11.974;2022-12-18T05:01:34;18.20;;;9.50;;
24826;SDS011;12910;57.690;11.974;2022-12-18T05:03:59;16.57;;;6.77;;
24826;SDS011;12910;57.690;11.974;2022-12-18T05:06:25;13.87;;;7.40;;
24826;SDS011;12910;57.690;11.974;2022-12-18T05:08:50;13.67;;;7.50;;
24826;SDS011;12910;57.690;11.974;2022-12-18T05:11:16;13.47;;;7.03;;
24826;SDS011;12910;57.690;11.974;2022-12-18T05:13:41;9.27;;;4.97;;
24826;SDS011;12910;57.690;11.974;2022-12-18T05:16:08;6.43;;;5.83;;
24826;SDS011;12910;57.690;11.974;2022-12-18T05:18:34;9.07;;;6.17;;
24826;SDS011;12910;57.690;11.974;2022-12-18T05:21:00;8.23;;;5.70;;
24826;SDS011;12910;57.690;11.974;2022-12-18T05:23:25;11.70;;;6.00;;
24826;SDS011;12910;57.690;11.974;2022-12-18T05:25:58;11.37;;;4.00;;
24826;SDS011;12910;57.690;11.974;2022-12-18T05:28:26;11.77;;;5.17;;
24826;SDS011;12910;57.690;11.974;2022-12-18T05:30:54;11.53;;;5.47;;
24826;SDS011;12910;57.690;11.974;2022-12-18T05:33:21;5.97;;;3.47;;
24826;SDS011;12910;57.690;11.974;2022-12-18T05:35:54;10.27;;;3.37;;
24826;SDS011;12910;57.690;11.974;2022-12-18T05:38:24;10.17;;;4.47;;
24826;SDS011;12910;57.690;11.974;2022-12-18T05:40:51;5.30;;;3.80;;
24826;SDS011;12910;57.690;11.974;2022-12-18T05:43:18;19.00;;;6.00;;
24826;SDS011;12910;57.690;11.974;2022-12-18T05:45:46;8.67;;;3.10;;
24826;SDS011;12910;57.690;11.974;2022-12-18T05:48:12;10.53;;;3.00;;
24826;SDS011;12910;57.690;11.974;2022-12-18T05:50:38;9.90;;;4.43;;
24826;SDS011;12910;57.690;11.974;2022-12-18T05:53:05;7.53;;;3.73;;
24826;SDS011;12910;57.690;11.974;2022-12-18T05:55:34;20.50;;;4.27;;
24826;SDS011;12910;57.690;11.974;2022-12-18T05:58:01;15.43;;;3.50;;
24826;SDS011;12910;57.690;11.974;2022-12-18T06:00:27;6.50;;;3.60;;
24826;SDS011;12910;57.690;11.974;2022-12-18T06:02:52;5.03;;;3.70;;
24826;SDS011;12910;57.690;11.974;2022-12-18T06:05:18;9.63;;;3.23;;
24826;SDS011;12910;57.690;11.974;2022-12-18T06:07:43;10.63;;;3.13;;
24826;SDS011;12910;57.690;11.974;2022-12-18T06:10:08;7.27;;;4.00;;
24826;SDS011;12910;57.690;11.974;2022-12-18T06:12:34;9.20;;;5.40;;
24826;SDS011;12910;57.690;11.974;2022-12-18T06:14:59;8.60;;;4.30;;
24826;SDS011;12910;57.690;11.974;2022-12-18T06:17:32;5.50;;;4.23;;
24826;SDS011;12910;57.690;11.974;2022-12-18T06:19:58;9.40;;;3.20;;
24826;SDS011;12910;57.690;11.974;2022-12-18T06:22:23;13.03;;;3.93;;
24826;SDS011;12910;57.690;11.974;2022-12-18T06:24:49;5.97;;;3.37;;
24826;SDS011;12910;57.690;11.974;2022-12-18T06:27:14;4.37;;;3.40;;
24826;SDS011;12910;57.690;11.974;2022-12-18T06:29:40;10.30;;;3.90;;
24826;SDS011;12910;57.690;11.974;2022-12-18T06:32:05;7.23;;;3.53;;
24826;SDS011;12910;57.690;11.974;2022-12-18T06:34:31;8.30;;;4.03;;
24826;SDS011;12910;57.690;11.974;2022-12-18T06:36:57;11.07;;;4.57;;
24826;SDS011;12910;57.690;11.974;2022-12-18T06:39:22;3.50;;;3.20;;
24826;SDS011;12910;57.690;11.974;2022-12-18T06:41:48;10.47;;;3.33;;
24826;SDS011;12910;57.690;11.974;2022-12-18T06:44:13;11.27;;;3.73;;
24826;SDS011;12910;57.690;11.974;2022-12-18T06:46:38;8.93;;;3.17;;
24826;SDS011;12910;57.690;11.974;2022-12-18T06:49:04;16.07;;;3.77;;
24826;SDS011;12910;57.690;11.974;2022-12-18T06:51:29;5.40;;;2.83;;
24826;SDS011;12910;57.690;11.974;2022-12-18T06:53:55;5.07;;;2.80;;
24826;SDS011;12910;57.690;11.974;2022-12-18T06:56:20;9.80;;;3.27;;
24826;SDS011;12910;57.690;11.974;2022-12-18T06:58:45;6.03;;;3.43;;
24826;SDS011;12910;57.690;11.974;2022-12-18T07:01:11;8.10;;;3.00;;
24826;SDS011;12910;57.690;11.974;2022-12-18T07:03:38;6.23;;;2.10;;
24826;SDS011;12910;57.690;11.974;2022-12-18T07:06:05;9.80;;;3.93;;
24826;SDS011;12910;57.690;11.974;2022-12-18T07:08:31;9.60;;;2.97;;
24826;SDS011;12910;57.690;11.974;2022-12-18T07:10:57;12.27;;;3.37;;
24826;SDS011;12910;57.690;11.974;2022-12-18T07:13:23;12.83;;;3.87;;
24826;SDS011;12910;57.690;11.974;2022-12-18T07:15:48;5.30;;;2.97;;
24826;SDS011;12910;57.690;11.974;2022-12-18T07:18:13;9.73;;;2.63;;
24826;SDS011;12910;57.690;11.974;2022-12-18T07:20:39;3.70;;;2.63;;
24826;SDS011;12910;57.690;11.974;2022-12-18T07:23:04;11.07;;;2.37;;
24826;SDS011;12910;57.690;11.974;2022-12-18T07:25:30;6.37;;;2.50;;
24826;SDS011;12910;57.690;11.974;2022-12-18T07:27:59;7.53;;;3.17;;
24826;SDS011;12910;57.690;11.974;2022-12-18T07:30:25;3.07;;;2.30;;
24826;SDS011;12910;57.690;11.974;2022-12-18T07:32:50;6.73;;;2.40;;
24826;SDS011;12910;57.690;11.974;2022-12-18T07:35:15;4.57;;;2.53;;
24826;SDS011;12910;57.690;11.974;2022-12-18T07:37:41;8.23;;;2.40;;
24826;SDS011;12910;57.690;11.974;2022-12-18T07:40:07;2.67;;;2.13;;
24826;SDS011;12910;57.690;11.974;2022-12-18T07:42:33;5.90;;;2.57;;
24826;SDS011;12910;57.690;11.974;2022-12-18T07:44:59;5.63;;;1.80;;
24826;SDS011;12910;57.690;11.974;2022-12-18T07:47:25;4.13;;;2.50;;
24826;SDS011;12910;57.690;11.974;2022-12-18T07:49:51;10.00;;;2.57;;
24826;SDS011;12910;57.690;11.974;2022-12-18T07:52:16;7.40;;;2.13;;
24826;SDS011;12910;57.690;11.974;2022-12-18T07:54:42;3.53;;;2.50;;
24826;SDS011;12910;57.690;11.974;2022-12-18T07:57:07;6.30;;;2.37;;
24826;SDS011;12910;57.690;11.974;2022-12-18T07:59:33;6.27;;;2.90;;
24826;SDS011;12910;57.690;11.974;2022-12-18T08:01:59;5.00;;;2.47;;
24826;SDS011;12910;57.690;11.974;2022-12-18T08:04:25;9.07;;;3.10;;
24826;SDS011;12910;57.690;11.974;2022-12-18T08:06:50;9.03;;;3.30;;
24826;SDS011;12910;57.690;11.974;2022-12-18T08:09:16;3.33;;;2.00;;
24826;SDS011;12910;57.690;11.974;2022-12-18T08:11:42;17.00;;;3.27;;
24826;SDS011;12910;57.690;11.974;2022-12-18T08:14:07;4.10;;;2.53;;
24826;SDS011;12910;57.690;11.974;2022-12-18T08:16:33;7.63;;;2.70;;
24826;SDS011;12910;57.690;11.974;2022-12-18T08:18:58;11.63;;;2.60;;
24826;SDS011;12910;57.690;11.974;2022-12-18T08:21:27;5.57;;;3.43;;
24826;SDS011;12910;57.690;11.974;2022-12-18T08:23:55;3.30;;;2.20;;
24826;SDS011;12910;57.690;11.974;2022-12-18T08:26:22;10.93;;;2.63;;
24826;SDS011;12910;57.690;11.974;2022-12-18T08:28:49;9.40;;;3.00;;
24826;SDS011;12910;57.690;11.974;2022-12-18T08:31:18;3.77;;;2.53;;
24826;SDS011;12910;57.690;11.974;2022-12-18T08:33:43;7.63;;;2.83;;
24826;SDS011;12910;57.690;11.974;2022-12-18T08:36:09;8.73;;;3.20;;
24826;SDS011;12910;57.690;11.974;2022-12-18T08:38:35;10.53;;;3.47;;
24826;SDS011;12910;57.690;11.974;2022-12-18T08:41:04;6.90;;;2.90;;
24826;SDS011;12910;57.690;11.974;2022-12-18T08:43:31;6.17;;;2.83;;
24826;SDS011;12910;57.690;11.974;2022-12-18T08:46:15;9.60;;;3.60;;
24826;SDS011;12910;57.690;11.974;2022-12-18T08:48:41;7.40;;;2.70;;
24826;SDS011;12910;57.690;11.974;2022-12-18T08:51:06;6.10;;;3.87;;
24826;SDS011;12910;57.690;11.974;2022-12-18T08:53:32;20.30;;;4.80;;
24826;SDS011;12910;57.690;11.974;2022-12-18T08:55:57;11.17;;;4.57;;
24826;SDS011;12910;57.690;11.974;2022-12-18T08:58:23;7.03;;;3.63;;
24826;SDS011;12910;57.690;11.974;2022-12-18T09:00:48;6.13;;;3.03;;
24826;SDS011;12910;57.690;11.974;2022-12-18T09:03:14;15.80;;;4.07;;
24826;SDS011;12910;57.690;11.974;2022-12-18T09:05:41;6.00;;;3.43;;
24826;SDS011;12910;57.690;11.974;2022-12-18T09:08:07;14.90;;;3.97;;
24826;SDS011;12910;57.690;11.974;2022-12-18T09:10:33;9.23;;;3.67;;
24826;SDS011;12910;57.690;11.974;2022-12-18T09:12:58;10.20;;;4.13;;
24826;SDS011;12910;57.690;11.974;2022-12-18T09:15:24;18.00;;;5.53;;
24826;SDS011;12910;57.690;11.974;2022-12-18T09:17:49;7.67;;;4.07;;
24826;SDS011;12910;57.690;11.974;2022-12-18T09:20:15;9.87;;;3.30;;
24826;SDS011;12910;57.690;11.974;2022-12-18T09:22:41;13.30;;;3.57;;
24826;SDS011;12910;57.690;11.974;2022-12-18T09:25:07;4.50;;;4.03;;
24826;SDS011;12910;57.690;11.974;2022-12-18T09:27:33;12.83;;;2.87;;
24826;SDS011;12910;57.690;11.974;2022-12-18T09:29:58;11.53;;;4.57;;
24826;SDS011;12910;57.690;11.974;2022-12-18T09:32:24;5.53;;;3.43;;
24826;SDS011;12910;57.690;11.974;2022-12-18T09:34:49;9.33;;;4.23;;
24826;SDS011;12910;57.690;11.974;2022-12-18T09:37:14;4.87;;;4.37;;
24826;SDS011;12910;57.690;11.974;2022-12-18T09:39:40;4.17;;;3.23;;
24826;SDS011;12910;57.690;11.974;2022-12-18T09:42:05;9.60;;;4.60;;
24826;SDS011;12910;57.690;11.974;2022-12-18T09:44:44;6.60;;;3.33;;
24826;SDS011;12910;57.690;11.974;2022-12-18T09:47:22;10.13;;;3.73;;
24826;SDS011;12910;57.690;11.974;2022-12-18T09:49:58;7.63;;;3.13;;
24826;SDS011;12910;57.690;11.974;2022-12-18T09:55:05;11.93;;;4.20;;
24826;SDS011;12910;57.690;11.974;2022-12-18T09:57:51;6.90;;;3.80;;
24826;SDS011;12910;57.690;11.974;2022-12-18T10:00:22;12.13;;;4.07;;
24826;SDS011;12910;57.690;11.974;2022-12-18T10:02:48;11.80;;;2.33;;
24826;SDS011;12910;57.690;11.974;2022-12-18T10:05:17;15.13;;;4.03;;
24826;SDS011;12910;57.690;11.974;2022-12-18T10:08:02;17.27;;;2.77;;
24826;SDS011;12910;57.690;11.974;2022-12-18T10:10:38;14.53;;;3.67;;
24826;SDS011;12910;57.690;11.974;2022-12-18T10:21:09;8.07;;;2.50;;
24826;SDS011;12910;57.690;11.974;2022-12-18T10:26:39;3.40;;;2.30;;
24826;SDS011;12910;57.690;11.974;2022-12-18T10:29:13;4.20;;;2.77;;
24826;SDS011;12910;57.690;11.974;2022-12-18T10:31:39;7.37;;;4.00;;
24826;SDS011;12910;57.690;11.974;2022-12-18T10:34:14;2.97;;;2.07;;
24826;SDS011;12910;57.690;11.974;2022-12-18T10:36:40;9.27;;;2.83;;
24826;SDS011;12910;57.690;11.974;2022-12-18T10:39:27;8.50;;;2.37;;
24826;SDS011;12910;57.690;11.974;2022-12-18T10:41:52;8.30;;;2.83;;
24826;SDS011;12910;57.690;11.974;2022-12-18T10:44:36;9.63;;;2.90;;
24826;SDS011;12910;57.690;11.974;2022-12-18T10:47:06;5.87;;;3.17;;
24826;SDS011;12910;57.690;11.974;2022-12-18T10:49:37;5.53;;;2.67;;
24826;SDS011;12910;57.690;11.974;2022-12-18T10:52:21;6.30;;;2.90;;
24826;SDS011;12910;57.690;11.974;2022-12-18T10:54:51;9.33;;;2.70;;
24826;SDS011;12910;57.690;11.974;2022-12-18T10:59:55;9.90;;;2.50;;
24826;SDS011;12910;57.690;11.974;2022-12-18T11:02:26;8.73;;;3.00;;
24826;SDS011;12910;57.690;11.974;2022-12-18T11:04:57;8.63;;;2.60;;
24826;SDS011;12910;57.690;11.974;2022-12-18T11:07:23;4.80;;;2.60;;
24826;SDS011;12910;57.690;11.974;2022-12-18T11:09:58;6.40;;;2.57;;
24826;SDS011;12910;57.690;11.974;2022-12-18T11:12:28;1.93;;;1.70;;
24826;SDS011;12910;57.690;11.974;2022-12-18T11:14:54;5.27;;;2.20;;
24826;SDS011;12910;57.690;11.974;2022-12-18T11:17:25;6.20;;;2.50;;
24826;SDS011;12910;57.690;11.974;2022-12-18T11:19:56;7.50;;;2.20;;
24826;SDS011;12910;57.690;11.974;2022-12-18T11:22:30;10.53;;;2.90;;
24826;SDS011;12910;57.690;11.974;2022-12-18T11:27:22;3.93;;;2.67;;
24826;SDS011;12910;57.690;11.974;2022-12-18T11:29:49;5.07;;;2.90;;
24826;SDS011;12910;57.690;11.974;2022-12-18T11:35:16;7.63;;;2.60;;
24826;SDS011;12910;57.690;11.974;2022-12-18T11:37:46;8.20;;;2.43;;
24826;SDS011;12910;57.690;11.974;2022-12-18T11:40:18;7.73;;;3.20;;
24826;SDS011;12910;57.690;11.974;2022-12-18T11:45:54;8.53;;;2.83;;
24826;SDS011;12910;57.690;11.974;2022-12-18T11:48:30;6.90;;;2.97;;
24826;SDS011;12910;57.690;11.974;2022-12-18T11:51:02;7.20;;;2.73;;
24826;SDS011;12910;57.690;11.974;2022-12-18T11:53:34;7.77;;;3.23;;
24826;SDS011;12910;57.690;11.974;2022-12-18T11:56:22;7.33;;;3.53;;
24826;SDS011;12910;57.690;11.974;2022-12-18T12:01:52;7.50;;;2.77;;
24826;SDS011;12910;57.690;11.974;2022-12-18T12:04:41;11.77;;;2.70;;
24826;SDS011;12910;57.690;11.974;2022-12-18T12:10:05;4.53;;;2.70;;
24826;SDS011;12910;57.690;11.974;2022-12-18T12:16:19;6.80;;;2.43;;
24826;SDS011;12910;57.690;11.974;2022-12-18T12:24:09;17.17;;;4.53;;
24826;SDS011;12910;57.690;11.974;2022-12-18T12:26:58;8.43;;;3.90;;
24826;SDS011;12910;57.690;11.974;2022-12-18T12:38:24;14.13;;;4.03;;
24826;SDS011;12910;57.690;11.974;2022-12-18T12:40:54;15.67;;;2.90;;
24826;SDS011;12910;57.690;11.974;2022-12-18T12:43:41;5.33;;;2.30;;
24826;SDS011;12910;57.690;11.974;2022-12-18T12:46:10;11.73;;;2.63;;
24826;SDS011;12910;57.690;11.974;2022-12-18T12:48:43;5.13;;;2.30;;
24826;SDS011;12910;57.690;11.974;2022-12-18T12:51:17;4.97;;;2.30;;
24826;SDS011;12910;57.690;11.974;2022-12-18T12:53:46;7.53;;;2.43;;
24826;SDS011;12910;57.690;11.974;2022-12-18T12:56:14;3.43;;;2.20;;
24826;SDS011;12910;57.690;11.974;2022-12-18T13:07:06;7.90;;;2.23;;
24826;SDS011;12910;57.690;11.974;2022-12-18T13:13:07;4.37;;;1.67;;
24826;SDS011;12910;57.690;11.974;2022-12-18T13:15:41;8.30;;;1.50;;
24826;SDS011;12910;57.690;11.974;2022-12-18T13:18:11;2.33;;;1.63;;
24826;SDS011;12910;57.690;11.974;2022-12-18T13:20:41;6.43;;;1.93;;
24826;SDS011;12910;57.690;11.974;2022-12-18T13:23:19;3.40;;;1.40;;
24826;SDS011;12910;57.690;11.974;2022-12-18T13:25:48;5.03;;;1.27;;
24826;SDS011;12910;57.690;11.974;2022-12-18T13:30:43;4.83;;;1.40;;
24826;SDS011;12910;57.690;11.974;2022-12-18T13:35:40;15.00;;;2.70;;
24826;SDS011;12910;57.690;11.974;2022-12-18T13:45:48;3.20;;;1.67;;
24826;SDS011;12910;57.690;11.974;2022-12-18T13:48:20;8.93;;;1.90;;
24826;SDS011;12910;57.690;11.974;2022-12-18T13:50:57;6.63;;;2.10;;
24826;SDS011;12910;57.690;11.974;2022-12-18T13:53:44;9.57;;;1.63;;
24826;SDS011;12910;57.690;11.974;2022-12-18T13:56:15;3.87;;;2.17;;
24826;SDS011;12910;57.690;11.974;2022-12-18T13:58:41;17.87;;;2.73;;
24826;SDS011;12910;57.690;11.974;2022-12-18T14:01:20;7.63;;;2.07;;
24826;SDS011;12910;57.690;11.974;2022-12-18T14:03:47;7.93;;;2.23;;
24826;SDS011;12910;57.690;11.974;2022-12-18T14:06:13;3.47;;;1.97;;
24826;SDS011;12910;57.690;11.974;2022-12-18T14:08:39;10.70;;;3.67;;
24826;SDS011;12910;57.690;11.974;2022-12-18T14:11:16;5.67;;;2.03;;
24826;SDS011;12910;57.690;11.974;2022-12-18T14:13:45;4.23;;;1.80;;
24826;SDS011;12910;57.690;11.974;2022-12-18T14:16:12;4.63;;;1.73;;
24826;SDS011;12910;57.690;11.974;2022-12-18T14:23:47;17.17;;;2.80;;
24826;SDS011;12910;57.690;11.974;2022-12-18T14:26:22;4.13;;;1.70;;
24826;SDS011;12910;57.690;11.974;2022-12-18T14:28:54;4.93;;;2.20;;
24826;SDS011;12910;57.690;11.974;2022-12-18T14:31:24;5.80;;;2.07;;
24826;SDS011;12910;57.690;11.974;2022-12-18T14:33:51;5.97;;;2.47;;
24826;SDS011;12910;57.690;11.974;2022-12-18T14:36:19;3.37;;;1.83;;
24826;SDS011;12910;57.690;11.974;2022-12-18T14:38:55;3.87;;;1.90;;
24826;SDS011;12910;57.690;11.974;2022-12-18T14:41:22;7.67;;;3.00;;
24826;SDS011;12910;57.690;11.974;2022-12-18T14:43:50;6.33;;;2.53;;
24826;SDS011;12910;57.690;11.974;2022-12-18T14:46:50;6.50;;;3.10;;
24826;SDS011;12910;57.690;11.974;2022-12-18T14:49:24;18.80;;;3.67;;
24826;SDS011;12910;57.690;11.974;2022-12-18T14:51:55;9.67;;;5.27;;
24826;SDS011;12910;57.690;11.974;2022-12-18T14:54:22;15.27;;;5.70;;
24826;SDS011;12910;57.690;11.974;2022-12-18T14:56:58;16.70;;;5.50;;
24826;SDS011;12910;57.690;11.974;2022-12-18T14:59:27;11.10;;;5.43;;
24826;SDS011;12910;57.690;11.974;2022-12-18T15:04:35;14.20;;;6.03;;
24826;SDS011;12910;57.690;11.974;2022-12-18T15:07:20;12.83;;;6.87;;
24826;SDS011;12910;57.690;11.974;2022-12-18T15:10:08;10.47;;;6.80;;
24826;SDS011;12910;57.690;11.974;2022-12-18T15:18:01;21.03;;;10.13;;
24826;SDS011;12910;57.690;11.974;2022-12-18T15:20:32;27.17;;;10.50;;
24826;SDS011;12910;57.690;11.974;2022-12-18T15:23:14;23.07;;;12.97;;
24826;SDS011;12910;57.690;11.974;2022-12-18T15:25:42;28.20;;;11.20;;
24826;SDS011;12910;57.690;11.974;2022-12-18T15:28:19;30.80;;;11.80;;
24826;SDS011;12910;57.690;11.974;2022-12-18T15:33:39;43.90;;;11.73;;
24826;SDS011;12910;57.690;11.974;2022-12-18T15:36:15;37.60;;;12.30;;
24826;SDS011;12910;57.690;11.974;2022-12-18T15:38:45;47.47;;;14.23;;
24826;SDS011;12910;57.690;11.974;2022-12-18T15:41:13;43.83;;;13.80;;
24826;SDS011;12910;57.690;11.974;2022-12-18T15:43:40;51.27;;;17.20;;
24826;SDS011;12910;57.690;11.974;2022-12-18T15:46:09;72.23;;;21.27;;
24826;SDS011;12910;57.690;11.974;2022-12-18T15:48:42;73.03;;;18.80;;
24826;SDS011;12910;57.690;11.974;2022-12-18T15:51:13;55.53;;;17.53;;
24826;SDS011;12910;57.690;11.974;2022-12-18T15:53:42;63.17;;;19.53;;
24826;SDS011;12910;57.690;11.974;2022-12-18T15:56:11;52.00;;;16.17;;
24826;SDS011;12910;57.690;11.974;2022-12-18T15:58:57;73.83;;;18.57;;
24826;SDS011;12910;57.690;11.974;2022-12-18T16:01:24;51.63;;;19.57;;
24826;SDS011;12910;57.690;11.974;2022-12-18T16:03:52;55.03;;;18.90;;
24826;SDS011;12910;57.690;11.974;2022-12-18T16:06:18;51.10;;;16.93;;
24826;SDS011;12910;57.690;11.974;2022-12-18T16:08:43;60.93;;;19.37;;
24826;SDS011;12910;57.690;11.974;2022-12-18T16:11:42;70.30;;;20.97;;
24826;SDS011;12910;57.690;11.974;2022-12-18T16:14:19;56.60;;;19.07;;
24826;SDS011;12910;57.690;11.974;2022-12-18T16:16:46;52.60;;;18.67;;
24826;SDS011;12910;57.690;11.974;2022-12-18T16:19:16;57.03;;;17.60;;
24826;SDS011;12910;57.690;11.974;2022-12-18T16:21:42;62.27;;;19.67;;
24826;SDS011;12910;57.690;11.974;2022-12-18T16:24:15;71.17;;;19.40;;
24826;SDS011;12910;57.690;11.974;2022-12-18T16:26:43;63.73;;;19.33;;
24826;SDS011;12910;57.690;11.974;2022-12-18T16:29:09;60.80;;;18.43;;
24826;SDS011;12910;57.690;11.974;2022-12-18T16:31:35;71.93;;;19.70;;
24826;SDS011;12910;57.690;11.974;2022-12-18T16:36:51;66.80;;;18.83;;